Deering, New Hampshire
Current Conditions -  °F | °C
As of 4:51 PM on Friday 24 Oct 2014 (Local Time) from KCON Reporting Station
Overcast Overcast  
Wind Chill: 45°   Ceiling: 2200
Heat Index: 49°   Visibility: 10mi
Dew Point: 41°   Wind: 10mph
Humidity: 74%   Direction: 310°NW
Pressure: 29.7"   Gusts: 22mph
Location:  43.1281°N, 71.9266°W
Report Text: KCON 242051Z AUTO 31009G19KT 10SM OVC022 09/05 A2970 RMK AO2 SLP058 T00940050 55001
Loading
Personal Weather Stations






























Interactive Weather Map
Tropical Storm Tracking
New forecast layout! Learn more

10-Day Weather Forecast

Advertisements
Track Severe Weather on mobile